sensor_id;sensor_type;location;lat;lon;timestamp;P1;durP1;ratioP1;P2;durP2;ratioP2
11935;SDS011;6027;48.576;9.180;2023-02-15T00:01:41;21.30;;;19.20;;
11935;SDS011;6027;48.576;9.180;2023-02-15T00:04:07;20.70;;;18.67;;
11935;SDS011;6027;48.576;9.180;2023-02-15T00:06:33;21.30;;;19.00;;
11935;SDS011;6027;48.576;9.180;2023-02-15T00:08:59;19.80;;;17.60;;
11935;SDS011;6027;48.576;9.180;2023-02-15T00:11:25;22.47;;;20.10;;
11935;SDS011;6027;48.576;9.180;2023-02-15T00:14:09;20.57;;;18.43;;
11935;SDS011;6027;48.576;9.180;2023-02-15T00:16:36;19.03;;;17.13;;
11935;SDS011;6027;48.576;9.180;2023-02-15T00:19:03;18.03;;;16.20;;
11935;SDS011;6027;48.576;9.180;2023-02-15T00:21:29;19.87;;;17.87;;
11935;SDS011;6027;48.576;9.180;2023-02-15T00:23:56;20.23;;;18.20;;
11935;SDS011;6027;48.576;9.180;2023-02-15T00:26:24;19.13;;;17.13;;
11935;SDS011;6027;48.576;9.180;2023-02-15T00:28:50;18.87;;;16.87;;
11935;SDS011;6027;48.576;9.180;2023-02-15T00:31:15;17.20;;;15.13;;
11935;SDS011;6027;48.576;9.180;2023-02-15T00:33:41;19.40;;;17.33;;
11935;SDS011;6027;48.576;9.180;2023-02-15T00:36:07;17.70;;;15.13;;
11935;SDS011;6027;48.576;9.180;2023-02-15T00:38:34;19.60;;;16.97;;
11935;SDS011;6027;48.576;9.180;2023-02-15T00:41:01;19.70;;;17.70;;
11935;SDS011;6027;48.576;9.180;2023-02-15T00:43:28;18.70;;;16.60;;
11935;SDS011;6027;48.576;9.180;2023-02-15T00:45:55;19.90;;;17.83;;
11935;SDS011;6027;48.576;9.180;2023-02-15T00:48:21;18.50;;;16.47;;
11935;SDS011;6027;48.576;9.180;2023-02-15T00:50:54;20.97;;;18.77;;
11935;SDS011;6027;48.576;9.180;2023-02-15T00:53:24;21.90;;;16.33;;
11935;SDS011;6027;48.576;9.180;2023-02-15T00:55:52;18.10;;;16.03;;
11935;SDS011;6027;48.576;9.180;2023-02-15T00:58:17;18.37;;;15.87;;
11935;SDS011;6027;48.576;9.180;2023-02-15T01:00:44;19.03;;;16.20;;
11935;SDS011;6027;48.576;9.180;2023-02-15T01:03:11;19.90;;;17.00;;
11935;SDS011;6027;48.576;9.180;2023-02-15T01:05:37;18.70;;;16.70;;
11935;SDS011;6027;48.576;9.180;2023-02-15T01:08:03;19.80;;;15.37;;
11935;SDS011;6027;48.576;9.180;2023-02-15T01:10:28;19.70;;;17.70;;
11935;SDS011;6027;48.576;9.180;2023-02-15T01:12:55;18.07;;;16.07;;
11935;SDS011;6027;48.576;9.180;2023-02-15T01:15:21;18.67;;;16.30;;
11935;SDS011;6027;48.576;9.180;2023-02-15T01:17:47;20.03;;;15.80;;
11935;SDS011;6027;48.576;9.180;2023-02-15T01:20:18;21.70;;;16.60;;
11935;SDS011;6027;48.576;9.180;2023-02-15T01:22:47;19.13;;;15.57;;
11935;SDS011;6027;48.576;9.180;2023-02-15T01:25:15;20.33;;;18.23;;
11935;SDS011;6027;48.576;9.180;2023-02-15T01:27:41;26.70;;;23.53;;
11935;SDS011;6027;48.576;9.180;2023-02-15T01:30:07;24.30;;;20.43;;
11935;SDS011;6027;48.576;9.180;2023-02-15T01:32:33;25.63;;;20.03;;
11935;SDS011;6027;48.576;9.180;2023-02-15T01:34:59;25.40;;;18.03;;
11935;SDS011;6027;48.576;9.180;2023-02-15T01:37:24;19.43;;;17.30;;
11935;SDS011;6027;48.576;9.180;2023-02-15T01:39:50;21.50;;;18.33;;
11935;SDS011;6027;48.576;9.180;2023-02-15T01:42:20;19.77;;;17.07;;
11935;SDS011;6027;48.576;9.180;2023-02-15T01:44:52;20.00;;;17.80;;
11935;SDS011;6027;48.576;9.180;2023-02-15T01:47:35;20.33;;;17.03;;
11935;SDS011;6027;48.576;9.180;2023-02-15T01:52:49;19.73;;;15.83;;
11935;SDS011;6027;48.576;9.180;2023-02-15T01:55:21;20.03;;;15.80;;
11935;SDS011;6027;48.576;9.180;2023-02-15T01:57:48;19.90;;;17.10;;
11935;SDS011;6027;48.576;9.180;2023-02-15T02:00:15;19.90;;;17.73;;
11935;SDS011;6027;48.576;9.180;2023-02-15T02:02:42;18.17;;;15.30;;
11935;SDS011;6027;48.576;9.180;2023-02-15T02:05:10;19.30;;;16.27;;
11935;SDS011;6027;48.576;9.180;2023-02-15T02:07:39;20.90;;;15.43;;
11935;SDS011;6027;48.576;9.180;2023-02-15T02:10:10;19.37;;;16.30;;
11935;SDS011;6027;48.576;9.180;2023-02-15T02:12:42;19.10;;;14.67;;
11935;SDS011;6027;48.576;9.180;2023-02-15T02:17:51;18.27;;;16.37;;
11935;SDS011;6027;48.576;9.180;2023-02-15T02:23:10;19.10;;;15.07;;
11935;SDS011;6027;48.576;9.180;2023-02-15T02:37:37;19.73;;;16.00;;
11935;SDS011;6027;48.576;9.180;2023-02-15T02:43:02;19.37;;;16.23;;
11935;SDS011;6027;48.576;9.180;2023-02-15T02:45:58;18.53;;;16.00;;
11935;SDS011;6027;48.576;9.180;2023-02-15T02:48:32;18.13;;;16.03;;
11935;SDS011;6027;48.576;9.180;2023-02-15T02:50:58;20.47;;;16.30;;
11935;SDS011;6027;48.576;9.180;2023-02-15T02:53:24;19.10;;;15.73;;
11935;SDS011;6027;48.576;9.180;2023-02-15T02:55:54;21.10;;;16.13;;
11935;SDS011;6027;48.576;9.180;2023-02-15T02:58:43;16.73;;;14.87;;
11935;SDS011;6027;48.576;9.180;2023-02-15T03:01:15;19.07;;;16.23;;
11935;SDS011;6027;48.576;9.180;2023-02-15T03:03:45;20.63;;;17.00;;
11935;SDS011;6027;48.576;9.180;2023-02-15T03:06:19;33.20;;;17.53;;
11935;SDS011;6027;48.576;9.180;2023-02-15T03:08:54;24.53;;;17.23;;
11935;SDS011;6027;48.576;9.180;2023-02-15T03:11:26;13.43;;;11.77;;
11935;SDS011;6027;48.576;9.180;2023-02-15T03:13:52;20.87;;;15.40;;
11935;SDS011;6027;48.576;9.180;2023-02-15T03:16:18;18.93;;;15.93;;
11935;SDS011;6027;48.576;9.180;2023-02-15T03:18:52;19.87;;;15.57;;
11935;SDS011;6027;48.576;9.180;2023-02-15T03:21:34;21.90;;;16.43;;
11935;SDS011;6027;48.576;9.180;2023-02-15T03:24:11;19.73;;;14.27;;
11935;SDS011;6027;48.576;9.180;2023-02-15T03:26:40;18.60;;;15.20;;
11935;SDS011;6027;48.576;9.180;2023-02-15T03:29:10;13.93;;;12.33;;
11935;SDS011;6027;48.576;9.180;2023-02-15T03:31:39;16.47;;;13.90;;
11935;SDS011;6027;48.576;9.180;2023-02-15T03:34:10;16.77;;;14.03;;
11935;SDS011;6027;48.576;9.180;2023-02-15T03:41:58;15.47;;;13.87;;
11935;SDS011;6027;48.576;9.180;2023-02-15T03:44:29;16.47;;;13.30;;
11935;SDS011;6027;48.576;9.180;2023-02-15T03:46:58;17.67;;;14.13;;
11935;SDS011;6027;48.576;9.180;2023-02-15T03:49:36;16.83;;;13.10;;
11935;SDS011;6027;48.576;9.180;2023-02-15T03:52:06;18.30;;;14.07;;
11935;SDS011;6027;48.576;9.180;2023-02-15T03:54:34;19.87;;;14.47;;
11935;SDS011;6027;48.576;9.180;2023-02-15T03:57:20;18.50;;;13.87;;
11935;SDS011;6027;48.576;9.180;2023-02-15T04:05:47;20.10;;;15.17;;
11935;SDS011;6027;48.576;9.180;2023-02-15T04:08:13;17.87;;;13.90;;
11935;SDS011;6027;48.576;9.180;2023-02-15T04:10:39;15.43;;;12.93;;
11935;SDS011;6027;48.576;9.180;2023-02-15T04:13:24;17.83;;;12.90;;
11935;SDS011;6027;48.576;9.180;2023-02-15T04:15:55;14.60;;;13.10;;
11935;SDS011;6027;48.576;9.180;2023-02-15T04:18:33;16.67;;;14.07;;
11935;SDS011;6027;48.576;9.180;2023-02-15T04:21:19;18.83;;;16.87;;
11935;SDS011;6027;48.576;9.180;2023-02-15T04:24:04;19.93;;;17.43;;
11935;SDS011;6027;48.576;9.180;2023-02-15T04:26:48;21.23;;;17.17;;
11935;SDS011;6027;48.576;9.180;2023-02-15T04:29:14;22.63;;;16.70;;
11935;SDS011;6027;48.576;9.180;2023-02-15T04:31:40;21.23;;;17.33;;
11935;SDS011;6027;48.576;9.180;2023-02-15T04:34:06;21.43;;;16.80;;
11935;SDS011;6027;48.576;9.180;2023-02-15T04:36:31;20.13;;;15.47;;
11935;SDS011;6027;48.576;9.180;2023-02-15T04:38:57;25.00;;;16.83;;
11935;SDS011;6027;48.576;9.180;2023-02-15T04:41:22;20.70;;;16.17;;
11935;SDS011;6027;48.576;9.180;2023-02-15T04:43:47;20.13;;;16.63;;
11935;SDS011;6027;48.576;9.180;2023-02-15T04:46:13;21.43;;;17.37;;
11935;SDS011;6027;48.576;9.180;2023-02-15T04:48:38;22.80;;;18.10;;
11935;SDS011;6027;48.576;9.180;2023-02-15T04:51:07;21.77;;;17.87;;
11935;SDS011;6027;48.576;9.180;2023-02-15T04:53:33;22.50;;;16.80;;
11935;SDS011;6027;48.576;9.180;2023-02-15T04:55:59;18.03;;;15.60;;
11935;SDS011;6027;48.576;9.180;2023-02-15T04:58:24;20.53;;;16.57;;
11935;SDS011;6027;48.576;9.180;2023-02-15T05:00:50;20.73;;;16.30;;
11935;SDS011;6027;48.576;9.180;2023-02-15T05:03:15;19.27;;;14.37;;
11935;SDS011;6027;48.576;9.180;2023-02-15T05:05:41;19.63;;;15.03;;
11935;SDS011;6027;48.576;9.180;2023-02-15T05:08:06;19.87;;;14.20;;
11935;SDS011;6027;48.576;9.180;2023-02-15T05:10:32;18.30;;;14.20;;
11935;SDS011;6027;48.576;9.180;2023-02-15T05:12:57;19.93;;;15.27;;
11935;SDS011;6027;48.576;9.180;2023-02-15T05:15:22;20.07;;;15.90;;
11935;SDS011;6027;48.576;9.180;2023-02-15T05:17:48;19.97;;;15.57;;
11935;SDS011;6027;48.576;9.180;2023-02-15T05:20:13;19.67;;;15.70;;
11935;SDS011;6027;48.576;9.180;2023-02-15T05:22:39;19.30;;;15.60;;
11935;SDS011;6027;48.576;9.180;2023-02-15T05:25:06;18.77;;;13.97;;
11935;SDS011;6027;48.576;9.180;2023-02-15T05:27:50;25.30;;;19.37;;
11935;SDS011;6027;48.576;9.180;2023-02-15T05:30:34;54.40;;;36.67;;
11935;SDS011;6027;48.576;9.180;2023-02-15T05:33:00;42.07;;;28.43;;
11935;SDS011;6027;48.576;9.180;2023-02-15T05:35:25;28.23;;;21.63;;
11935;SDS011;6027;48.576;9.180;2023-02-15T05:37:51;26.07;;;17.07;;
11935;SDS011;6027;48.576;9.180;2023-02-15T05:40:16;21.53;;;15.03;;
11935;SDS011;6027;48.576;9.180;2023-02-15T05:42:41;19.07;;;14.27;;
11935;SDS011;6027;48.576;9.180;2023-02-15T05:45:07;19.63;;;15.20;;
11935;SDS011;6027;48.576;9.180;2023-02-15T05:47:32;16.13;;;13.23;;
11935;SDS011;6027;48.576;9.180;2023-02-15T05:49:58;15.77;;;13.47;;
11935;SDS011;6027;48.576;9.180;2023-02-15T05:52:23;18.17;;;14.17;;
11935;SDS011;6027;48.576;9.180;2023-02-15T05:54:49;18.57;;;14.80;;
11935;SDS011;6027;48.576;9.180;2023-02-15T05:57:14;21.03;;;15.57;;
11935;SDS011;6027;48.576;9.180;2023-02-15T05:59:40;22.03;;;16.57;;
11935;SDS011;6027;48.576;9.180;2023-02-15T06:02:05;22.30;;;17.03;;
11935;SDS011;6027;48.576;9.180;2023-02-15T06:04:31;23.77;;;16.87;;
11935;SDS011;6027;48.576;9.180;2023-02-15T06:06:57;21.10;;;16.93;;
11935;SDS011;6027;48.576;9.180;2023-02-15T06:09:22;20.90;;;16.77;;
11935;SDS011;6027;48.576;9.180;2023-02-15T06:11:48;23.67;;;16.93;;
11935;SDS011;6027;48.576;9.180;2023-02-15T06:14:15;22.00;;;16.90;;
11935;SDS011;6027;48.576;9.180;2023-02-15T06:19:09;27.37;;;21.03;;
11935;SDS011;6027;48.576;9.180;2023-02-15T06:21:34;27.90;;;21.33;;
11935;SDS011;6027;48.576;9.180;2023-02-15T06:24:00;34.63;;;25.83;;
11935;SDS011;6027;48.576;9.180;2023-02-15T06:26:31;32.63;;;26.93;;
11935;SDS011;6027;48.576;9.180;2023-02-15T06:28:56;28.17;;;24.23;;
11935;SDS011;6027;48.576;9.180;2023-02-15T06:31:22;25.87;;;21.33;;
11935;SDS011;6027;48.576;9.180;2023-02-15T06:33:47;25.00;;;19.07;;
11935;SDS011;6027;48.576;9.180;2023-02-15T06:36:12;29.57;;;24.67;;
11935;SDS011;6027;48.576;9.180;2023-02-15T06:38:38;23.50;;;19.70;;
11935;SDS011;6027;48.576;9.180;2023-02-15T06:41:03;25.27;;;17.30;;
11935;SDS011;6027;48.576;9.180;2023-02-15T06:43:29;21.90;;;18.10;;
11935;SDS011;6027;48.576;9.180;2023-02-15T06:45:54;19.23;;;15.63;;
11935;SDS011;6027;48.576;9.180;2023-02-15T06:48:19;23.97;;;16.63;;
11935;SDS011;6027;48.576;9.180;2023-02-15T06:50:45;21.60;;;16.87;;
11935;SDS011;6027;48.576;9.180;2023-02-15T06:53:10;23.13;;;17.50;;
11935;SDS011;6027;48.576;9.180;2023-02-15T06:55:36;24.60;;;16.47;;
11935;SDS011;6027;48.576;9.180;2023-02-15T06:58:01;19.40;;;15.50;;
11935;SDS011;6027;48.576;9.180;2023-02-15T07:00:26;25.40;;;18.07;;
11935;SDS011;6027;48.576;9.180;2023-02-15T07:02:56;26.63;;;18.63;;
11935;SDS011;6027;48.576;9.180;2023-02-15T07:05:23;27.80;;;18.40;;
11935;SDS011;6027;48.576;9.180;2023-02-15T07:07:49;26.77;;;18.93;;
11935;SDS011;6027;48.576;9.180;2023-02-15T07:10:15;25.03;;;18.80;;
11935;SDS011;6027;48.576;9.180;2023-02-15T07:12:40;24.73;;;17.63;;
11935;SDS011;6027;48.576;9.180;2023-02-15T07:15:06;25.57;;;18.30;;
11935;SDS011;6027;48.576;9.180;2023-02-15T07:17:34;28.23;;;19.27;;
11935;SDS011;6027;48.576;9.180;2023-02-15T07:20:02;22.50;;;17.83;;
11935;SDS011;6027;48.576;9.180;2023-02-15T07:22:35;20.83;;;16.90;;
11935;SDS011;6027;48.576;9.180;2023-02-15T07:25:04;20.43;;;16.03;;
11935;SDS011;6027;48.576;9.180;2023-02-15T07:27:31;20.90;;;15.60;;
11935;SDS011;6027;48.576;9.180;2023-02-15T07:29:57;20.30;;;15.53;;
11935;SDS011;6027;48.576;9.180;2023-02-15T07:32:25;20.87;;;14.70;;
11935;SDS011;6027;48.576;9.180;2023-02-15T07:34:53;20.10;;;15.97;;
11935;SDS011;6027;48.576;9.180;2023-02-15T07:37:19;23.20;;;16.37;;
11935;SDS011;6027;48.576;9.180;2023-02-15T07:39:45;21.97;;;16.73;;
11935;SDS011;6027;48.576;9.180;2023-02-15T07:42:10;23.40;;;18.20;;
11935;SDS011;6027;48.576;9.180;2023-02-15T07:44:35;18.43;;;16.00;;
11935;SDS011;6027;48.576;9.180;2023-02-15T07:47:01;22.23;;;14.97;;
11935;SDS011;6027;48.576;9.180;2023-02-15T07:49:26;20.03;;;14.97;;
11935;SDS011;6027;48.576;9.180;2023-02-15T07:51:52;18.57;;;14.97;;
11935;SDS011;6027;48.576;9.180;2023-02-15T07:54:19;18.97;;;15.30;;
11935;SDS011;6027;48.576;9.180;2023-02-15T07:56:44;16.87;;;14.50;;
11935;SDS011;6027;48.576;9.180;2023-02-15T07:59:28;19.70;;;14.43;;
11935;SDS011;6027;48.576;9.180;2023-02-15T08:01:54;18.50;;;14.63;;
11935;SDS011;6027;48.576;9.180;2023-02-15T08:04:22;19.33;;;15.33;;
11935;SDS011;6027;48.576;9.180;2023-02-15T08:06:51;20.97;;;15.53;;
11935;SDS011;6027;48.576;9.180;2023-02-15T08:09:18;19.17;;;15.43;;
11935;SDS011;6027;48.576;9.180;2023-02-15T08:11:43;19.40;;;14.70;;
11935;SDS011;6027;48.576;9.180;2023-02-15T08:14:10;19.47;;;14.80;;
11935;SDS011;6027;48.576;9.180;2023-02-15T08:16:59;18.80;;;15.33;;
11935;SDS011;6027;48.576;9.180;2023-02-15T08:19:30;18.37;;;15.00;;
11935;SDS011;6027;48.576;9.180;2023-02-15T08:21:58;20.33;;;15.07;;
11935;SDS011;6027;48.576;9.180;2023-02-15T08:24:27;19.97;;;15.83;;
11935;SDS011;6027;48.576;9.180;2023-02-15T08:26:54;25.67;;;18.23;;
11935;SDS011;6027;48.576;9.180;2023-02-15T08:29:20;21.87;;;17.23;;
11935;SDS011;6027;48.576;9.180;2023-02-15T08:31:48;23.97;;;18.63;;
11935;SDS011;6027;48.576;9.180;2023-02-15T08:34:15;48.60;;;32.50;;
11935;SDS011;6027;48.576;9.180;2023-02-15T08:36:42;34.93;;;25.87;;
11935;SDS011;6027;48.576;9.180;2023-02-15T08:39:10;40.50;;;32.23;;
11935;SDS011;6027;48.576;9.180;2023-02-15T08:41:37;40.30;;;32.27;;
11935;SDS011;6027;48.576;9.180;2023-02-15T08:44:05;36.10;;;28.57;;
11935;SDS011;6027;48.576;9.180;2023-02-15T08:46:32;19.63;;;17.47;;
11935;SDS011;6027;48.576;9.180;2023-02-15T08:49:00;17.23;;;15.13;;
11935;SDS011;6027;48.576;9.180;2023-02-15T08:51:30;17.53;;;15.60;;
11935;SDS011;6027;48.576;9.180;2023-02-15T08:53:58;17.23;;;14.50;;
11935;SDS011;6027;48.576;9.180;2023-02-15T08:56:26;17.60;;;15.90;;
11935;SDS011;6027;48.576;9.180;2023-02-15T08:58:54;18.00;;;15.77;;
11935;SDS011;6027;48.576;9.180;2023-02-15T09:01:21;18.07;;;16.37;;
11935;SDS011;6027;48.576;9.180;2023-02-15T09:03:49;16.37;;;14.87;;
11935;SDS011;6027;48.576;9.180;2023-02-15T09:06:18;15.90;;;14.30;;
11935;SDS011;6027;48.576;9.180;2023-02-15T09:08:44;15.07;;;13.67;;
11935;SDS011;6027;48.576;9.180;2023-02-15T09:11:11;14.20;;;12.83;;
11935;SDS011;6027;48.576;9.180;2023-02-15T09:13:38;14.17;;;12.67;;
11935;SDS011;6027;48.576;9.180;2023-02-15T09:16:05;13.30;;;12.00;;
11935;SDS011;6027;48.576;9.180;2023-02-15T09:18:33;14.13;;;12.20;;
11935;SDS011;6027;48.576;9.180;2023-02-15T09:21:12;13.97;;;12.53;;
11935;SDS011;6027;48.576;9.180;2023-02-15T09:23:39;12.23;;;11.00;;
11935;SDS011;6027;48.576;9.180;2023-02-15T09:26:07;11.63;;;10.10;;
11935;SDS011;6027;48.576;9.180;2023-02-15T09:28:34;11.37;;;9.50;;
11935;SDS011;6027;48.576;9.180;2023-02-15T09:33:42;11.10;;;9.90;;
11935;SDS011;6027;48.576;9.180;2023-02-15T09:38:39;11.00;;;9.43;;
11935;SDS011;6027;48.576;9.180;2023-02-15T09:41:28;14.70;;;9.83;;
11935;SDS011;6027;48.576;9.180;2023-02-15T09:44:07;11.87;;;8.90;;
11935;SDS011;6027;48.576;9.180;2023-02-15T09:58:33;8.80;;;7.03;;
11935;SDS011;6027;48.576;9.180;2023-02-15T10:01:08;7.10;;;6.20;;
11935;SDS011;6027;48.576;9.180;2023-02-15T10:06:26;10.90;;;8.63;;
11935;SDS011;6027;48.576;9.180;2023-02-15T10:09:09;8.90;;;6.97;;
11935;SDS011;6027;48.576;9.180;2023-02-15T10:14:52;10.87;;;6.53;;
11935;SDS011;6027;48.576;9.180;2023-02-15T10:23:08;9.63;;;7.33;;
11935;SDS011;6027;48.576;9.180;2023-02-15T10:45:06;10.80;;;7.30;;
11935;SDS011;6027;48.576;9.180;2023-02-15T10:50:17;6.80;;;6.03;;
11935;SDS011;6027;48.576;9.180;2023-02-15T10:58:21;10.13;;;6.90;;
11935;SDS011;6027;48.576;9.180;2023-02-15T11:01:23;7.83;;;6.87;;
11935;SDS011;6027;48.576;9.180;2023-02-15T11:06:54;9.55;;;6.43;;
11935;SDS011;6027;48.576;9.180;2023-02-15T11:09:24;9.35;;;5.95;;
11935;SDS011;6027;48.576;9.180;2023-02-15T11:11:56;6.85;;;5.80;;
11935;SDS011;6027;48.576;9.180;2023-02-15T11:17:09;7.47;;;5.30;;
11935;SDS011;6027;48.576;9.180;2023-02-15T11:19:39;9.48;;;5.65;;
11935;SDS011;6027;48.576;9.180;2023-02-15T11:22:12;10.00;;;6.28;;
11935;SDS011;6027;48.576;9.180;2023-02-15T11:24:42;6.93;;;5.43;;
11935;SDS011;6027;48.576;9.180;2023-02-15T11:29:44;11.38;;;5.05;;
11935;SDS011;6027;48.576;9.180;2023-02-15T11:40:01;8.27;;;5.40;;
11935;SDS011;6027;48.576;9.180;2023-02-15T11:42:29;7.80;;;5.13;;
11935;SDS011;6027;48.576;9.180;2023-02-15T11:47:51;7.57;;;5.35;;
11935;SDS011;6027;48.576;9.180;2023-02-15T11:50:19;7.35;;;5.95;;
11935;SDS011;6027;48.576;9.180;2023-02-15T11:52:51;8.65;;;5.68;;
11935;SDS011;6027;48.576;9.180;2023-02-15T11:55:21;8.38;;;6.32;;
11935;SDS011;6027;48.576;9.180;2023-02-15T11:57:54;14.43;;;7.03;;
11935;SDS011;6027;48.576;9.180;2023-02-15T12:00:32;7.55;;;5.70;;
11935;SDS011;6027;48.576;9.180;2023-02-15T12:03:18;7.00;;;5.53;;
11935;SDS011;6027;48.576;9.180;2023-02-15T12:06:05;6.72;;;5.47;;
11935;SDS011;6027;48.576;9.180;2023-02-15T12:11:47;7.43;;;5.75;;
11935;SDS011;6027;48.576;9.180;2023-02-15T12:14:13;6.30;;;5.05;;
11935;SDS011;6027;48.576;9.180;2023-02-15T12:16:45;7.53;;;5.40;;
11935;SDS011;6027;48.576;9.180;2023-02-15T12:21:46;12.05;;;6.00;;
11935;SDS011;6027;48.576;9.180;2023-02-15T12:24:22;9.48;;;5.68;;
11935;SDS011;6027;48.576;9.180;2023-02-15T12:27:04;9.73;;;5.82;;
11935;SDS011;6027;48.576;9.180;2023-02-15T12:29:40;11.25;;;5.70;;
11935;SDS011;6027;48.576;9.180;2023-02-15T12:32:17;9.98;;;5.57;;
11935;SDS011;6027;48.576;9.180;2023-02-15T12:34:47;8.73;;;5.78;;
11935;SDS011;6027;48.576;9.180;2023-02-15T12:37:22;8.70;;;5.63;;
11935;SDS011;6027;48.576;9.180;2023-02-15T12:40:00;10.23;;;5.55;;
11935;SDS011;6027;48.576;9.180;2023-02-15T12:42:28;8.10;;;5.40;;
11935;SDS011;6027;48.576;9.180;2023-02-15T12:45:49;8.82;;;5.60;;
11935;SDS011;6027;48.576;9.180;2023-02-15T12:50:39;8.50;;;7.05;;
11935;SDS011;6027;48.576;9.180;2023-02-15T12:53:08;9.27;;;6.55;;
11935;SDS011;6027;48.576;9.180;2023-02-15T12:55:40;8.07;;;6.50;;
11935;SDS011;6027;48.576;9.180;2023-02-15T13:04:08;14.95;;;6.68;;
11935;SDS011;6027;48.576;9.180;2023-02-15T13:06:48;7.85;;;6.88;;
11935;SDS011;6027;48.576;9.180;2023-02-15T13:12:08;9.57;;;7.88;;
11935;SDS011;6027;48.576;9.180;2023-02-15T13:14:34;10.65;;;7.63;;
11935;SDS011;6027;48.576;9.180;2023-02-15T13:17:02;8.82;;;7.53;;
11935;SDS011;6027;48.576;9.180;2023-02-15T13:19:43;8.63;;;7.45;;
11935;SDS011;6027;48.576;9.180;2023-02-15T13:22:15;11.32;;;7.70;;
11935;SDS011;6027;48.576;9.180;2023-02-15T13:24:57;9.77;;;8.02;;
11935;SDS011;6027;48.576;9.180;2023-02-15T13:27:26;9.23;;;7.70;;
11935;SDS011;6027;48.576;9.180;2023-02-15T13:30:00;10.40;;;8.10;;
11935;SDS011;6027;48.576;9.180;2023-02-15T13:32:38;9.10;;;8.15;;
11935;SDS011;6027;48.576;9.180;2023-02-15T13:35:10;12.02;;;8.05;;
11935;SDS011;6027;48.576;9.180;2023-02-15T13:37:54;11.70;;;8.80;;
11935;SDS011;6027;48.576;9.180;2023-02-15T13:46:17;9.30;;;8.02;;
11935;SDS011;6027;48.576;9.180;2023-02-15T13:52:02;12.70;;;8.13;;
11935;SDS011;6027;48.576;9.180;2023-02-15T13:54:50;10.45;;;8.50;;
11935;SDS011;6027;48.576;9.180;2023-02-15T13:57:35;10.50;;;8.27;;
11935;SDS011;6027;48.576;9.180;2023-02-15T14:05:53;11.10;;;8.32;;
11935;SDS011;6027;48.576;9.180;2023-02-15T14:11:21;17.92;;;9.32;;
11935;SDS011;6027;48.576;9.180;2023-02-15T14:17:07;10.80;;;8.50;;
11935;SDS011;6027;48.576;9.180;2023-02-15T14:19:46;13.30;;;9.32;;
11935;SDS011;6027;48.576;9.180;2023-02-15T14:28:19;16.05;;;9.55;;
11935;SDS011;6027;48.576;9.180;2023-02-15T14:30:55;12.50;;;9.52;;
11935;SDS011;6027;48.576;9.180;2023-02-15T14:33:29;13.15;;;9.23;;
11935;SDS011;6027;48.576;9.180;2023-02-15T14:35:58;13.93;;;9.85;;
11935;SDS011;6027;48.576;9.180;2023-02-15T14:48:53;12.55;;;8.82;;
11935;SDS011;6027;48.576;9.180;2023-02-15T14:54:06;11.57;;;8.27;;
11935;SDS011;6027;48.576;9.180;2023-02-15T14:56:32;20.25;;;9.50;;
11935;SDS011;6027;48.576;9.180;2023-02-15T14:58:59;12.05;;;8.60;;
11935;SDS011;6027;48.576;9.180;2023-02-15T15:01:37;11.82;;;8.82;;
11935;SDS011;6027;48.576;9.180;2023-02-15T15:04:05;11.57;;;8.48;;
11935;SDS011;6027;48.576;9.180;2023-02-15T15:06:35;15.68;;;9.70;;
11935;SDS011;6027;48.576;9.180;2023-02-15T15:11:50;11.10;;;7.82;;
11935;SDS011;6027;48.576;9.180;2023-02-15T15:17:09;7.68;;;6.70;;
11935;SDS011;6027;48.576;9.180;2023-02-15T15:22:21;11.20;;;5.63;;
11935;SDS011;6027;48.576;9.180;2023-02-15T15:35:44;6.78;;;5.38;;
11935;SDS011;6027;48.576;9.180;2023-02-15T15:43:34;6.82;;;5.00;;
11935;SDS011;6027;48.576;9.180;2023-02-15T15:48:37;8.02;;;5.35;;
11935;SDS011;6027;48.576;9.180;2023-02-15T15:51:09;7.55;;;4.93;;
11935;SDS011;6027;48.576;9.180;2023-02-15T15:53:40;7.95;;;5.38;;
11935;SDS011;6027;48.576;9.180;2023-02-15T15:56:11;9.88;;;5.88;;
11935;SDS011;6027;48.576;9.180;2023-02-15T15:58:48;9.55;;;5.50;;
11935;SDS011;6027;48.576;9.180;2023-02-15T16:01:21;8.95;;;5.50;;
11935;SDS011;6027;48.576;9.180;2023-02-15T16:03:52;10.52;;;5.75;;
11935;SDS011;6027;48.576;9.180;2023-02-15T16:08:54;8.95;;;6.10;;
11935;SDS011;6027;48.576;9.180;2023-02-15T16:11:21;9.60;;;6.30;;
11935;SDS011;6027;48.576;9.180;2023-02-15T16:13:50;10.63;;;6.90;;
11935;SDS011;6027;48.576;9.180;2023-02-15T16:16:35;9.35;;;6.75;;
11935;SDS011;6027;48.576;9.180;2023-02-15T16:19:00;12.23;;;7.20;;
11935;SDS011;6027;48.576;9.180;2023-02-15T16:21:27;10.38;;;7.80;;
11935;SDS011;6027;48.576;9.180;2023-02-15T16:24:19;9.98;;;7.30;;
11935;SDS011;6027;48.576;9.180;2023-02-15T16:29:50;17.52;;;10.27;;
11935;SDS011;6027;48.576;9.180;2023-02-15T16:34:55;17.92;;;13.00;;
11935;SDS011;6027;48.576;9.180;2023-02-15T16:37:26;16.50;;;11.77;;
11935;SDS011;6027;48.576;9.180;2023-02-15T16:39:56;19.25;;;11.15;;
11935;SDS011;6027;48.576;9.180;2023-02-15T16:42:21;18.73;;;12.13;;
11935;SDS011;6027;48.576;9.180;2023-02-15T16:44:51;52.00;;;32.58;;
11935;SDS011;6027;48.576;9.180;2023-02-15T16:47:27;46.63;;;35.83;;
11935;SDS011;6027;48.576;9.180;2023-02-15T16:50:00;35.58;;;26.88;;
11935;SDS011;6027;48.576;9.180;2023-02-15T16:52:27;47.30;;;33.50;;
11935;SDS011;6027;48.576;9.180;2023-02-15T16:54:55;40.03;;;30.00;;
11935;SDS011;6027;48.576;9.180;2023-02-15T16:57:24;80.85;;;55.95;;
11935;SDS011;6027;48.576;9.180;2023-02-15T16:59:54;71.30;;;54.17;;
11935;SDS011;6027;48.576;9.180;2023-02-15T17:02:28;39.90;;;30.17;;
11935;SDS011;6027;48.576;9.180;2023-02-15T17:07:50;31.58;;;23.00;;
11935;SDS011;6027;48.576;9.180;2023-02-15T17:10:33;22.05;;;18.27;;
11935;SDS011;6027;48.576;9.180;2023-02-15T17:13:15;29.73;;;19.52;;
11935;SDS011;6027;48.576;9.180;2023-02-15T17:15:42;20.98;;;16.23;;
11935;SDS011;6027;48.576;9.180;2023-02-15T17:21:13;25.30;;;18.60;;
11935;SDS011;6027;48.576;9.180;2023-02-15T17:23:44;33.28;;;19.23;;
11935;SDS011;6027;48.576;9.180;2023-02-15T17:28:59;28.40;;;18.90;;
11935;SDS011;6027;48.576;9.180;2023-02-15T17:31:36;26.15;;;17.15;;
11935;SDS011;6027;48.576;9.180;2023-02-15T17:34:02;23.38;;;16.92;;
11935;SDS011;6027;48.576;9.180;2023-02-15T17:36:28;21.30;;;16.75;;
11935;SDS011;6027;48.576;9.180;2023-02-15T17:43:54;19.63;;;13.88;;
11935;SDS011;6027;48.576;9.180;2023-02-15T17:46:21;27.63;;;14.38;;
11935;SDS011;6027;48.576;9.180;2023-02-15T17:48:47;19.63;;;13.88;;
11935;SDS011;6027;48.576;9.180;2023-02-15T17:51:14;20.77;;;12.27;;
11935;SDS011;6027;48.576;9.180;2023-02-15T17:53:41;16.90;;;12.25;;
11935;SDS011;6027;48.576;9.180;2023-02-15T17:56:31;18.58;;;12.30;;
11935;SDS011;6027;48.576;9.180;2023-02-15T17:59:00;17.70;;;12.43;;
11935;SDS011;6027;48.576;9.180;2023-02-15T18:01:26;21.60;;;15.35;;
11935;SDS011;6027;48.576;9.180;2023-02-15T18:04:14;27.60;;;18.95;;
11935;SDS011;6027;48.576;9.180;2023-02-15T18:06:59;20.65;;;14.45;;
11935;SDS011;6027;48.576;9.180;2023-02-15T18:09:46;20.83;;;14.25;;
11935;SDS011;6027;48.576;9.180;2023-02-15T18:12:31;16.05;;;12.40;;
11935;SDS011;6027;48.576;9.180;2023-02-15T18:14:58;21.52;;;11.95;;
11935;SDS011;6027;48.576;9.180;2023-02-15T18:19:57;85.55;;;53.67;;
11935;SDS011;6027;48.576;9.180;2023-02-15T18:22:22;42.03;;;28.75;;
11935;SDS011;6027;48.576;9.180;2023-02-15T18:24:48;31.33;;;22.83;;
11935;SDS011;6027;48.576;9.180;2023-02-15T18:27:14;38.90;;;24.38;;
11935;SDS011;6027;48.576;9.180;2023-02-15T18:29:41;29.95;;;22.23;;
11935;SDS011;6027;48.576;9.180;2023-02-15T18:32:07;30.73;;;22.63;;
11935;SDS011;6027;48.576;9.180;2023-02-15T18:34:40;35.90;;;22.40;;
11935;SDS011;6027;48.576;9.180;2023-02-15T18:37:17;28.67;;;20.80;;
11935;SDS011;6027;48.576;9.180;2023-02-15T18:39:45;28.27;;;20.70;;